Terminal Aerodrome Forecast
Issued by NWS

Home | Current Version | Previous Version | Text Only | Print | Product List | Glossary On
Versions: 1 2 3 4 5 6 7 8 9 10 11 12 13 14 15 16 17 18 19 20 21 22 23 24 25 26 27 28
000
FTUS46 KPDT 172320
TAFDLS
TAF
KDLS 172320Z 1800/1824 VRB02KT P6SM SCT015 BKN050
     FM180400 01003KT 4SM -RA BR BKN025 OVC050
     FM180800 31003KT P6SM -SHRA SCT025 BKN050 OVC100
     FM181400 31005KT P6SM VCSH BKN050 OVC100
     FM181900 31010KT P6SM FEW020 BKN100=

USA.gov is the U.S. government's official web portal to all federal, state and local government web resources and services.